Leslie, West Virginia
Current Conditions -  °F | °C
As of 3:35 AM on Thursday 18 Dec 2014 (Local Time) from KLWB Reporting Station
Clear Clear  
Wind Chill: 24°   Ceiling: Unl
Heat Index: 29°   Visibility: 10mi
Dew Point: 21°   Wind: 5mph
Humidity: 72%   Direction: 270°W
Pressure: 30.1"   Gusts: NA
Location:  38.04°N, 80.72°W
Report Text: KLWB 180835Z AUTO 27004KT 10SM CLR M02/M06 A3010 RMK AO2 T10161060
Loading
Personal Weather Stations






























Interactive Weather Map New forecast layout! Learn more

10-Day Weather Forecast

Advertisements
Track Severe Weather on mobile